logo
Search for airport 
image banner adimage banner adimage banner ad
image banner ad

YWLI - Mount Wellington

Located in Wellington Park, Australia

ICAO - , IATA -

Data provided by Airmate  

General information

Coordinates: S42°54'0" E147°13'60"
Elevation is 4081 feet MSL.
Magnetic variation is 15° East
View others Airports in Tasmania

Operational data

Special qualification required
Current time UTC:
Current local time:
Weather at : YMHB - Hobart ( 24 km )
METAR: YMHB 131500Z AUTO 33007KT 9999 // SCT071 16/10 Q1018 RF00.0/000.0
TAF: TAF YMHB 131403Z 1315/1412 31006KT 9999 SCT040
View NOTAMs / SUP AIP / TFR affecting this airport [VIEW]
Communications frequencies: [VIEW]

Runways:

Airport contact information

Address: Wellington Park Australia

Satellite view of YWLI